Carlton, AL (36515)

3:43 PM CST on February 10, 2016 (GMT -0600)
Jackson, AL | | Change Station
CLOSE
Current Station
Personal Weather Station
Location: Jackson, AL
Elevation: 53 ft
Nearby Weather Stations
Active Advisory: Flood Warning

Elev 53 ft 31.49 °N, 87.90 °W | Updated 9 seconds ago

Clear
Clear
51.9 °F
Feels Like 51.9 °F
N
0.0
Wind Variable Wind from West
Gusts 0.0 mph

Today
High -- | Low -- °F
--% Chance of Precip.
Yesterday
High -- | Low -- °F
Precip. -- in
Pressure 30.24 in
Visibility 10.0 miles
Clouds Clear
Dew Point 22 °F
Humidity 31%
Rainfall 0.09 in
Snow Depth Not available.
6:37 AM 5:33 PM
Waxing Crescent, 7% visible
METAR KGZH 102053Z AUTO VRB05KT 10SM CLR 10/M11 A3023 RMK AO2 RAB29E39 SLP239 P0000 60000 T01001106 56015
Pressure 30.24 in
Visibility 10.0 miles
Clouds Clear
Dew Point 22 °F
Humidity 31%
Rainfall 0.09 in
Snow Depth Not available.
6:37 AM 5:33 PM
Waxing Crescent, 7% visible
METAR KGZH 102053Z AUTO VRB05KT 10SM CLR 10/M11 A3023 RMK AO2 RAB29E39 SLP239 P0000 60000 T01001106 56015

10-Day Weather Forecast

Almanac

Astronomy

Feb. 10, 2016 Rise Set
Actual Time
Civil Twilight
Nautical Twilight
Astronomical Twilight
Moon
Length of Visible Light
Length of Day
Tomorrow will be .
, % of the Moon is Illuminated

Today's Extremes

State Highs State Lows

Community

WunderPhotos

Upload Photos

1,891,951 photos uploaded!

WunderBlog® & News

Nearby

Air Quality

  Air Quality AQ Index Pollutant
Not available.

Snow Depth

Station Depth Elevation

Earthquake Activity

City Distance Mag. Time & Date
Minimum magnitude displayed is 2.5.

Coastal Water Temperatures

Place Temperature

Stations

Nearby Weather Stations

Station Location Temp. Windchill Dew Point Humidity Wind Precip. Elev Updated Type
                   

Watches & Warnings

Flood Warning
Issued: 9:28 AM CST Feb. 10, 2016 – National Weather Service

... Flood Warning extended until Thursday evening...
... The Flood Warning continues for
the Tombigbee river near LeRoy
* until Thursday evening.
* At 9 am Wednesday the stage was 25.8 feet.
* Minor flooding is occurring and minor flooding is forecast.
* Flood stage is 24 feet.
* The river will continue to fall to below flood stage by tomorrow early
afternoon.
* At 24 feet... flooding of low lying farm and pastureland occurs. Cattle in low lying
areas need to be moved to higher ground.


Lat... Lon 3160 8810 3160 8806 3149 8786 3114 8792
3114 8802 3149 8793




928 am CST Wed Feb 10 2016

... Flood Warning extended until Thursday morning...
... The Flood Warning continues for
the Tombigbee river near Coffeeville dam
* until Thursday morning.
* At 8 am Wednesday the stage was 31.6 feet.
* Minor flooding is occurring and minor flooding is forecast.
* Flood stage is 29 feet.
* The river will continue to fall to below flood stage by early tomorrow.
* At 29 feet... pastureland will become flooded. Livestock need to be moved to
higher ground.


Lat... Lon 3231 8803 3232 8791 3178 8809 3160 8806
3160 8810 3178 8822